LSZS/SMV METAR and TAF weather

Enter ICAO airport designator
Station Type Date Time Source
LSZS METAR 2022/12/05 15:20 UTC NOAA

LSZS 051520Z 05008KT 7000 3100NE -SN FEW009 BKN033 M02/M05 Q1014 RMK S TL170


Station Type Date Time Source
LSZS Decoded METAR 2022/12/05 15:20 UTC NOAA

Station name not available
Dec 05, 2022 - 10:20 AM EST / 2022.12.05 1520 UTC
Wind: from the NE (050 degrees) at 9 MPH (8 KT):0
Visibility: 4 mile(s):0
Sky conditions: mostly cloudy
Weather: light snow
Temperature: 28 F (-2 C)
Windchill: 19 F (-7 C):1
Dew Point: 23 F (-5 C)
Relative Humidity: 79%
Pressure (altimeter): 29.94 in. Hg (1014 hPa)
ob: LSZS 051520Z 05008KT 7000 3100NE -SN FEW009 BKN033 M02/M05 Q1014 RMK S TL170
cycle: 15

Station Type Date Time Source
LSZS TAF 2022/05/09 03:30 UTC NOAA

TAF LSZS 090225Z 0903/0912 05003KT 9999 OVC025 TX11/0912Z PROB30
TEMPO 0904/0907 4500 BR BKN005
BECMG 0910/0912 22008KT

Example: see airport list